Shindler, South Dakota
Current Conditions -  °F | °C
As of 9:56 PM on Saturday 22 Nov 2014 (Local Time) from KFSD Reporting Station
Overcast Overcast  
Wind Chill:   Ceiling: 13000
Heat Index:   Visibility: 10mi
Dew Point:   Wind: 12mph
Humidity: 82%   Direction: 200°SSW
Pressure: 29.46"   Gusts: NA
Location:  43.5199°N, 96.7933°W
Report Text: KFSD 230356Z 20010KT 10SM OVC130 06/03 A2946 RMK AO2 SLP988 T00610033
Loading
Personal Weather Stations






























Interactive Weather Map New forecast layout! Learn more

10-Day Weather Forecast

Advertisements
Track Severe Weather on mobile